San Diego, Texas
Current Conditions -  °F | °C
As of 2:53 PM on Tuesday 25 Nov 2014 (Local Time) from KALI Reporting Station
Clear Clear  
Wind Chill: 69°   Ceiling: Unl
Heat Index: 69°   Visibility: 10mi
Dew Point: 27°   Wind: 6mph
Humidity: 21%   Direction: 290°WNW
Pressure: 30.28"   Gusts: NA
Location:  27.76°N, 98.24°W
Report Text: KALI 252053Z AUTO 29005KT 10SM CLR 21/M03 A3028 RMK AO2 SLP253 T02061028 56020
Loading
Personal Weather Stations






























Interactive Weather Map New forecast layout! Learn more

10-Day Weather Forecast

Advertisements
Track Severe Weather on mobile